Westview Chinook — VG3278 — position and weather

sailwx.info

Track history (hours):
 
Tides and Currents Weather Stations Pressure Air Temp Water Temp Dewpoint Dewpoint Depression Visibility Wind Speed Wind Dir Waves Ship Positions

Westview Chinook

Last reported at 2014-Jul-25 17:33 UTC. Time now 2014-Jul-25 18:24 UTC.
Position N 49°13' W 123°12'.

Length 16 m; draft 3.5 m.

Type: Towing. MMSI: 316005622.

Date/timePositionNaut miles runAvg speedWind from/ knotsBaromVisibWave heightAir tempDewpointWater temp
2014-Jul-25 17:33N 49°13' W 123°12'2 1.9
2014-Jul-25 16:33N 49°14' W 123°14'2 2.2
2014-Jul-25 15:33N 49°16' W 123°17'5 4.8
2014-Jul-25 14:33N 49°13' W 123°11'2 2.1
2014-Jul-25 13:34N 49°12' W 123°08'0 0.0
2014-Jul-25 12:34N 49°12' W 123°08'0 0.0
2014-Jul-25 11:34N 49°12' W 123°08'7 6.9
2014-Jul-25 10:34N 49°11' W 122°58'2 1.8
2014-Jul-25 09:33N 49°10' W 122°56'7 7.5
2014-Jul-25 08:34N 49°13' W 122°46'4 4.0
2014-Jul-25 07:34N 49°12' W 122°40'6 6.0
2014-Jul-25 06:34N 49°13' W 122°49'6 5.9
2014-Jul-25 05:34N 49°11' W 122°57'6 6.1
2014-Jul-25 04:34N 49°12' W 123°07'6 6.3
2014-Jul-25 03:34N 49°15' W 123°15'7 7.0
2014-Jul-25 02:34N 49°12' W 123°05'1 0.8
2014-Jul-25 01:33N 49°12' W 123°04'4 3.9
2014-Jul-25 00:33N 49°11' W 122°59'1 1.3
2014-Jul-24 23:34N 49°10' W 122°58'2 1.5
2014-Jul-24 22:33N 49°10' W 122°56'4 4.2
2014-Jul-24 21:33N 49°13' W 122°52'3 3.5
2014-Jul-24 20:33N 49°13' W 122°47'4 3.8
2014-Jul-24 19:33N 49°11' W 122°41'1 1.2
2014-Jul-24 18:33N 49°11' W 122°43'4 3.6
2014-Jul-24 17:33N 49°15' W 122°44'2 1.9
2014-Jul-24 16:33N 49°13' W 122°45'2 1.9
2014-Jul-24 15:34N 49°15' W 122°44'1 1.1
2014-Jul-24 14:33N 49°14' W 122°45'0 0.4
2014-Jul-24 13:33N 49°14' W 122°46'3 3.4
2014-Jul-24 12:33N 49°13' W 122°51'6 5.9
2014-Jul-24 11:33N 49°10' W 122°58'4 4.5
2014-Jul-24 10:33N 49°13' W 122°53'7 7.1
2014-Jul-24 09:34N 49°12' W 122°42'7 6.8
2014-Jul-24 08:34N 49°10' W 122°33'7 7.2
2014-Jul-24 07:33N 49°08' W 122°22'6 6.3
2014-Jul-24 06:32N 49°08' W 122°12'1 0.5
2014-Jul-24 05:32N 49°08' W 122°13'4 3.8
2014-Jul-24 04:29N 49°07' W 122°19'7 5.6
2014-Jul-24 03:15N 49°10' W 122°29'4 6.2
2014-Jul-24 02:33N 49°11' W 122°35'6 5.8
2014-Jul-24 01:33N 49°13' W 122°44'2 1.9
2014-Jul-24 00:33N 49°14' W 122°46'3 3.0
2014-Jul-23 23:33N 49°13' W 122°51'6 6.5
2014-Jul-23 22:33N 49°09' W 122°59'5 5.0
2014-Jul-23 21:33N 49°07' W 123°05'4 4.0
2014-Jul-23 20:33N 49°07' W 123°12'0 0.0
2014-Jul-23 19:33N 49°07' W 123°11'9 9.5
2014-Jul-23 18:34N 49°09' W 122°57'9 8.6
2014-Jul-23 17:33N 49°14' W 122°46'0 0.0
2014-Jul-23 16:33N 49°14' W 122°46'0 0.0
2014-Jul-23 15:33N 49°14' W 122°46'0 0.0
2014-Jul-23 14:33N 49°14' W 122°46'0 0.0
2014-Jul-23 13:33N 49°14' W 122°46'2 1.8
2014-Jul-23 12:33N 49°13' W 122°48'1 1.0
2014-Jul-23 11:34N 49°13' W 122°47'4 4.0
2014-Jul-23 10:33N 49°11' W 122°41'5 4.9
2014-Jul-23 09:33N 49°13' W 122°48'7 7.4
2014-Jul-23 08:34N 49°09' W 122°58'5 5.3
2014-Jul-23 07:33N 49°07' W 123°05'5 5.4
2014-Jul-23 06:34N 49°09' W 122°58'7 7.1
2014-Jul-23 05:34N 49°13' W 122°49'8 7.8
2014-Jul-23 04:34N 49°13' W 122°37'7 4.5
2014-Jul-23 03:04N 49°10' W 122°27'3 6.8
2014-Jul-23 02:34N 49°10' W 122°32'6 6.4
2014-Jul-23 01:33N 49°12' W 122°42'3 3.5
2014-Jul-23 00:33N 49°14' W 122°46'0 0.0
2014-Jul-22 23:33N 49°14' W 122°46'2 2.5
2014-Jul-22 22:33N 49°13' W 122°50'2 1.9
2014-Jul-22 21:33N 49°13' W 122°47'4 3.9
2014-Jul-22 20:31N 49°11' W 122°41'0 0.3
2014-Jul-22 19:32N 49°11' W 122°41'3 2.8
2014-Jul-22 18:33N 49°13' W 122°44'5 4.6
2014-Jul-22 17:33N 49°13' W 122°51'4 4.3
2014-Jul-22 16:33N 49°10' W 122°56'1 1.5
2014-Jul-22 15:33N 49°10' W 122°58'6 5.6
2014-Jul-22 14:33N 49°13' W 122°52'0 0.4
2014-Jul-22 13:33N 49°13' W 122°52'4 3.9
2014-Jul-22 12:33N 49°14' W 122°46'4 4.5
2014-Jul-22 11:33N 49°11' W 122°41'5 4.8
2014-Jul-22 10:33N 49°13' W 122°47'6 5.8
2014-Jul-22 09:33N 49°10' W 122°55'2 1.8
2014-Jul-22 08:34N 49°10' W 122°58'0 0.0
2014-Jul-22 07:34N 49°09' W 122°58'1 0.8
2014-Jul-22 06:34N 49°10' W 122°57'7 7.1
2014-Jul-22 05:34N 49°13' W 122°47'2 2.4
2014-Jul-22 04:34N 49°12' W 122°44'5 5.0
2014-Jul-22 03:34N 49°13' W 122°51'6 5.8
2014-Jul-22 02:33N 49°10' W 122°58'6 5.7
2014-Jul-22 01:34N 49°13' W 122°51'1 0.7
2014-Jul-22 00:34N 49°13' W 122°52'6 6.0
2014-Jul-21 23:33N 49°12' W 122°43'0 0.4
2014-Jul-21 22:34N 49°12' W 122°44'6 6.1
2014-Jul-21 21:34N 49°13' W 122°53'6 5.6
2014-Jul-21 20:34N 49°12' W 123°01'2 6.5
2014-Jul-21 20:18N 49°12' W 123°04'4 5.9
2014-Jul-21 19:34N 49°13' W 123°10'2 1.9
2014-Jul-21 18:33N 49°14' W 123°13'4 3.7
2014-Jul-21 17:33N 49°15' W 123°18'1 0.9
2014-Jul-21 16:34N 49°16' W 123°17'5 5.3
2014-Jul-21 15:33N 49°19' W 123°10'2 2.3
2014-Jul-21 14:33N 49°18' W 123°07'2 1.5
2014-Jul-21 13:34N 49°17' W 123°05'1 0.5
2014-Jul-21 12:33N 49°17' W 123°04'0 0.1
2014-Jul-21 11:33N 49°17' W 123°04'8 8.3
2014-Jul-21 10:33N 49°17' W 123°17'4 4.4
2014-Jul-21 09:33N 49°15' W 123°23'10 9.7
2014-Jul-21 08:33N 49°14' W 123°38'10 9.8
2014-Jul-21 07:33N 49°12' W 123°53'0 0.4
2014-Jul-21 06:33N 49°12' W 123°52'8 8.0
2014-Jul-21 05:33N 49°10' W 123°40'8 8.0
2014-Jul-21 04:33N 49°08' W 123°29'8 8.0
2014-Jul-21 03:33N 49°07' W 123°16'9 8.6
2014-Jul-21 02:33N 49°08' W 123°03'6 6.3
2014-Jul-21 01:33N 49°11' W 122°55'6 6.5
2014-Jul-21 00:33N 49°14' W 122°46'0 0.0
2014-Jul-20 23:32N 49°14' W 122°46'0 0.0
2014-Jul-20 22:33N 49°14' W 122°46'0 0.0
2014-Jul-20 21:33N 49°14' W 122°46'0 0.0
2014-Jul-20 20:33N 49°14' W 122°46'0 0.0
2014-Jul-20 19:33N 49°14' W 122°46'0 0.0
2014-Jul-20 18:33N 49°14' W 122°46'0 0.0
2014-Jul-20 17:33N 49°14' W 122°46'0 0.0
2014-Jul-20 16:33N 49°14' W 122°46'0 0.0
2014-Jul-20 15:33N 49°14' W 122°46'0 0.0
2014-Jul-20 14:33N 49°14' W 122°46'0 0.0
2014-Jul-20 13:33N 49°14' W 122°46'0 0.0
2014-Jul-20 12:33N 49°14' W 122°46'0 0.0
2014-Jul-20 11:33N 49°14' W 122°46'0 0.0
2014-Jul-20 10:33N 49°14' W 122°46'5 5.2
2014-Jul-20 09:33N 49°13' W 122°54'2 2.1
2014-Jul-20 08:33N 49°12' W 122°57'2 1.5
2014-Jul-20 07:33N 49°12' W 122°54'3 3.4
2014-Jul-20 06:33N 49°11' W 122°59'6 6.2
2014-Jul-20 05:33N 49°12' W 123°09'4 4.0
2014-Jul-20 04:33N 49°14' W 123°14'5 4.5
2014-Jul-20 03:33N 49°12' W 123°08'4 3.7
2014-Jul-20 02:33N 49°12' W 123°02'4 4.3
2014-Jul-20 01:33N 49°12' W 123°09'5 4.5
2014-Jul-20 00:33N 49°15' W 123°15'4 4.4
2014-Jul-19 23:33N 49°16' W 123°22'6 5.9
2014-Jul-19 22:33N 49°15' W 123°30'6 5.9
2014-Jul-19 21:33N 49°14' W 123°39'6 5.9
2014-Jul-19 20:33N 49°13' W 123°48'5 5.0
2014-Jul-19 19:33N 49°09' W 123°53'0 0.0
2014-Jul-19 18:34N 49°09' W 123°53'0 0.1
2014-Jul-19 17:33N 49°09' W 123°53'7 7.0
2014-Jul-19 16:34N 49°12' W 123°43'1010.0
2014-Jul-19 15:34N 49°09' W 123°29'10 9.7
2014-Jul-19 14:33N 49°08' W 123°14'1010.4
2014-Jul-19 13:34N 49°09' W 122°59'9 9.3
2014-Jul-19 12:32N 49°14' W 122°46'0 0.0
2014-Jul-19 11:33N 49°14' W 122°46'0 0.0
2014-Jul-19 10:33N 49°14' W 122°46'3 3.1
2014-Jul-19 09:33N 49°13' W 122°50'4 4.0
2014-Jul-19 08:33N 49°12' W 122°56'3 2.6
2014-Jul-19 07:33N 49°10' W 122°58'1 1.2
2014-Jul-19 06:33N 49°10' W 122°56'4 4.3
2014-Jul-19 05:33N 49°13' W 122°52'6 6.3
2014-Jul-19 04:33N 49°12' W 122°42'3 3.5
2014-Jul-19 03:33N 49°13' W 122°37'1 1.1
2014-Jul-19 02:33N 49°12' W 122°39'6 5.6
2014-Jul-19 01:33N 49°13' W 122°47'5 4.9
2014-Jul-19 00:33N 49°12' W 122°54'3 2.9
2014-Jul-18 23:33N 49°10' W 122°57'1 0.7
2014-Jul-18 22:33N 49°10' W 122°58'3 2.8
2014-Jul-18 21:33N 49°12' W 122°55'5 5.4
2014-Jul-18 20:33N 49°13' W 122°47'1 0.6
2014-Jul-18 19:32N 49°14' W 122°46'5 5.3
2014-Jul-18 18:33N 49°12' W 122°54'3 2.8
2014-Jul-18 17:34N 49°11' W 122°58'1 1.3
2014-Jul-18 16:33N 49°12' W 122°56'3 2.5
2014-Jul-18 15:34N 49°09' W 122°58'7 6.7
2014-Jul-18 14:34N 49°13' W 122°49'5 5.2
2014-Jul-18 13:34N 49°11' W 122°42'4 4.0
2014-Jul-18 12:33N 49°14' W 122°46'3 2.8
2014-Jul-18 11:33N 49°13' W 122°50'6 6.2
2014-Jul-18 10:33N 49°11' W 122°59'4 3.9
2014-Jul-18 09:33N 49°12' W 123°04'3 2.6
2014-Jul-18 08:33N 49°12' W 123°08'5 5.3
2014-Jul-18 07:33N 49°15' W 123°15'7 7.2
2014-Jul-18 06:33N 49°12' W 123°05'3 2.7
2014-Jul-18 05:33N 49°12' W 123°01'4 4.3
2014-Jul-18 04:33N 49°12' W 122°54'3 3.2
2014-Jul-18 03:33N 49°09' W 122°57'1 0.6
2014-Jul-18 02:33N 49°10' W 122°58'3 3.0
2014-Jul-18 01:33N 49°12' W 122°55'1 1.1
2014-Jul-18 00:33N 49°11' W 122°55'1 1.1
2014-Jul-17 23:33N 49°12' W 122°55'2 2.5
2014-Jul-17 22:33N 49°10' W 122°57'2 1.7
2014-Jul-17 21:33N 49°11' W 122°55'5 4.9
2014-Jul-17 20:33N 49°12' W 123°03'1 1.5
2014-Jul-17 19:33N 49°12' W 123°05'0 0.4
2014-Jul-17 18:33N 49°12' W 123°05'0 0.0
2014-Jul-17 17:33N 49°12' W 123°05'0 0.0
2014-Jul-17 16:33N 49°12' W 123°05'0 0.0
2014-Jul-17 15:33N 49°12' W 123°05'0 0.0
2014-Jul-17 14:33N 49°12' W 123°05'0 0.0
2014-Jul-17 13:33N 49°12' W 123°05'0 0.0
2014-Jul-17 12:33N 49°12' W 123°05'0 0.0
2014-Jul-17 11:34N 49°12' W 123°05'0 0.0
2014-Jul-17 10:33N 49°12' W 123°05'0 0.0
2014-Jul-17 09:33N 49°12' W 123°05'0 0.0
2014-Jul-17 08:34N 49°12' W 123°05'0 0.0
2014-Jul-17 07:33N 49°12' W 123°05'0 0.0
2014-Jul-17 06:33N 49°12' W 123°05'0 0.0
2014-Jul-17 05:34N 49°12' W 123°05'0 0.0
2014-Jul-17 04:33N 49°12' W 123°05'0 0.0
2014-Jul-17 03:33N 49°12' W 123°05'0 0.0
2014-Jul-17 02:33N 49°12' W 123°05'0 0.0
2014-Jul-17 01:33N 49°12' W 123°05'0 0.0
2014-Jul-17 00:33N 49°12' W 123°05'0 0.0
2014-Jul-16 23:34N 49°12' W 123°05'0 0.0
2014-Jul-16 22:34N 49°12' W 123°05'0 0.0
2014-Jul-16 21:34N 49°12' W 123°05'0 0.0
2014-Jul-16 20:33N 49°12' W 123°05'0 0.0
2014-Jul-16 19:33N 49°12' W 123°05'0 0.0
2014-Jul-16 18:33N 49°12' W 123°05'0 0.0
2014-Jul-16 17:33N 49°12' W 123°05'0 0.0
2014-Jul-16 16:33N 49°12' W 123°05'0 0.0
2014-Jul-16 15:34N 49°12' W 123°05'0 0.0
2014-Jul-16 14:33N 49°12' W 123°05'0 0.0
2014-Jul-16 13:33N 49°12' W 123°05'0 0.0
2014-Jul-16 12:33N 49°12' W 123°05'0 0.0
2014-Jul-16 11:33N 49°12' W 123°05'0 0.0
2014-Jul-16 10:33N 49°12' W 123°05'0 0.0
2014-Jul-16 09:33N 49°12' W 123°05'0 0.0
2014-Jul-16 08:34N 49°12' W 123°05'0 0.0
2014-Jul-16 07:33N 49°12' W 123°05'0 0.0
2014-Jul-16 06:33N 49°12' W 123°05'0 0.0
2014-Jul-16 05:33N 49°12' W 123°05'0 0.0
2014-Jul-16 04:34N 49°12' W 123°05'0 0.0
2014-Jul-16 03:33N 49°12' W 123°05'0 0.0
2014-Jul-16 02:33N 49°12' W 123°05'0 0.0
2014-Jul-16 01:33N 49°12' W 123°05'0 0.0
2014-Jul-16 00:33N 49°12' W 123°05'0 0.0
2014-Jul-15 23:33N 49°12' W 123°05'0 0.0
2014-Jul-15 22:33N 49°12' W 123°05'0 0.0
2014-Jul-15 21:34N 49°12' W 123°05'0 0.0
2014-Jul-15 20:33N 49°12' W 123°05'0 0.0
2014-Jul-15 19:34N 49°12' W 123°05'0 0.0
2014-Jul-15 18:33N 49°12' W 123°05'  
Track history (hours):
 
Tides and Currents Weather Stations Pressure Air Temp Water Temp Dewpoint Dewpoint Depression Visibility Wind Speed Wind Dir Waves Ship Positions

Westview Chinook

Last reported at 2014-Jul-25 17:33 UTC. Time now 2014-Jul-25 18:24 UTC.
Position N 49°13' W 123°12'.

Length 16 m; draft 3.5 m.

Type: Towing. MMSI: 316005622.

Date/timePositionNaut miles runAvg speedWind from/ knotsBaromVisibWave heightAir tempDewpointWater temp
2014-Jul-25 17:33N 49°13' W 123°12'2 1.9
2014-Jul-25 16:33N 49°14' W 123°14'2 2.2
2014-Jul-25 15:33N 49°16' W 123°17'5 4.8
2014-Jul-25 14:33N 49°13' W 123°11'2 2.1
2014-Jul-25 13:34N 49°12' W 123°08'0 0.0
2014-Jul-25 12:34N 49°12' W 123°08'0 0.0
2014-Jul-25 11:34N 49°12' W 123°08'7 6.9
2014-Jul-25 10:34N 49°11' W 122°58'2 1.8
2014-Jul-25 09:33N 49°10' W 122°56'7 7.5
2014-Jul-25 08:34N 49°13' W 122°46'4 4.0
2014-Jul-25 07:34N 49°12' W 122°40'6 6.0
2014-Jul-25 06:34N 49°13' W 122°49'6 5.9
2014-Jul-25 05:34N 49°11' W 122°57'6 6.1
2014-Jul-25 04:34N 49°12' W 123°07'6 6.3
2014-Jul-25 03:34N 49°15' W 123°15'7 7.0
2014-Jul-25 02:34N 49°12' W 123°05'1 0.8
2014-Jul-25 01:33N 49°12' W 123°04'4 3.9
2014-Jul-25 00:33N 49°11' W 122°59'1 1.3
2014-Jul-24 23:34N 49°10' W 122°58'2 1.5
2014-Jul-24 22:33N 49°10' W 122°56'4 4.2
2014-Jul-24 21:33N 49°13' W 122°52'3 3.5
2014-Jul-24 20:33N 49°13' W 122°47'4 3.8
2014-Jul-24 19:33N 49°11' W 122°41'1 1.2
2014-Jul-24 18:33N 49°11' W 122°43'4 3.6
2014-Jul-24 17:33N 49°15' W 122°44'2 1.9
2014-Jul-24 16:33N 49°13' W 122°45'2 1.9
2014-Jul-24 15:34N 49°15' W 122°44'1 1.1
2014-Jul-24 14:33N 49°14' W 122°45'0 0.4
2014-Jul-24 13:33N 49°14' W 122°46'3 3.4
2014-Jul-24 12:33N 49°13' W 122°51'6 5.9
2014-Jul-24 11:33N 49°10' W 122°58'4 4.5
2014-Jul-24 10:33N 49°13' W 122°53'7 7.1
2014-Jul-24 09:34N 49°12' W 122°42'7 6.8
2014-Jul-24 08:34N 49°10' W 122°33'7 7.2
2014-Jul-24 07:33N 49°08' W 122°22'6 6.3
2014-Jul-24 06:32N 49°08' W 122°12'1 0.5
2014-Jul-24 05:32N 49°08' W 122°13'4 3.8
2014-Jul-24 04:29N 49°07' W 122°19'7 5.6
2014-Jul-24 03:15N 49°10' W 122°29'4 6.2
2014-Jul-24 02:33N 49°11' W 122°35'6 5.8
2014-Jul-24 01:33N 49°13' W 122°44'2 1.9
2014-Jul-24 00:33N 49°14' W 122°46'3 3.0
2014-Jul-23 23:33N 49°13' W 122°51'6 6.5
2014-Jul-23 22:33N 49°09' W 122°59'5 5.0
2014-Jul-23 21:33N 49°07' W 123°05'4 4.0
2014-Jul-23 20:33N 49°07' W 123°12'0 0.0
2014-Jul-23 19:33N 49°07' W 123°11'9 9.5
2014-Jul-23 18:34N 49°09' W 122°57'9 8.6
2014-Jul-23 17:33N 49°14' W 122°46'0 0.0
2014-Jul-23 16:33N 49°14' W 122°46'0 0.0
2014-Jul-23 15:33N 49°14' W 122°46'0 0.0
2014-Jul-23 14:33N 49°14' W 122°46'0 0.0
2014-Jul-23 13:33N 49°14' W 122°46'2 1.8
2014-Jul-23 12:33N 49°13' W 122°48'1 1.0
2014-Jul-23 11:34N 49°13' W 122°47'4 4.0
2014-Jul-23 10:33N 49°11' W 122°41'5 4.9
2014-Jul-23 09:33N 49°13' W 122°48'7 7.4
2014-Jul-23 08:34N 49°09' W 122°58'5 5.3
2014-Jul-23 07:33N 49°07' W 123°05'5 5.4
2014-Jul-23 06:34N 49°09' W 122°58'7 7.1
2014-Jul-23 05:34N 49°13' W 122°49'8 7.8
2014-Jul-23 04:34N 49°13' W 122°37'7 4.5
2014-Jul-23 03:04N 49°10' W 122°27'3 6.8
2014-Jul-23 02:34N 49°10' W 122°32'6 6.4
2014-Jul-23 01:33N 49°12' W 122°42'3 3.5
2014-Jul-23 00:33N 49°14' W 122°46'0 0.0
2014-Jul-22 23:33N 49°14' W 122°46'2 2.5
2014-Jul-22 22:33N 49°13' W 122°50'2 1.9
2014-Jul-22 21:33N 49°13' W 122°47'4 3.9
2014-Jul-22 20:31N 49°11' W 122°41'0 0.3
2014-Jul-22 19:32N 49°11' W 122°41'3 2.8
2014-Jul-22 18:33N 49°13' W 122°44'5 4.6
2014-Jul-22 17:33N 49°13' W 122°51'4 4.3
2014-Jul-22 16:33N 49°10' W 122°56'1 1.5
2014-Jul-22 15:33N 49°10' W 122°58'6 5.6
2014-Jul-22 14:33N 49°13' W 122°52'0 0.4
2014-Jul-22 13:33N 49°13' W 122°52'4 3.9
2014-Jul-22 12:33N 49°14' W 122°46'4 4.5
2014-Jul-22 11:33N 49°11' W 122°41'5 4.8
2014-Jul-22 10:33N 49°13' W 122°47'6 5.8
2014-Jul-22 09:33N 49°10' W 122°55'2 1.8
2014-Jul-22 08:34N 49°10' W 122°58'0 0.0
2014-Jul-22 07:34N 49°09' W 122°58'1 0.8
2014-Jul-22 06:34N 49°10' W 122°57'7 7.1
2014-Jul-22 05:34N 49°13' W 122°47'2 2.4
2014-Jul-22 04:34N 49°12' W 122°44'5 5.0
2014-Jul-22 03:34N 49°13' W 122°51'6 5.8
2014-Jul-22 02:33N 49°10' W 122°58'6 5.7
2014-Jul-22 01:34N 49°13' W 122°51'1 0.7
2014-Jul-22 00:34N 49°13' W 122°52'6 6.0
2014-Jul-21 23:33N 49°12' W 122°43'0 0.4
2014-Jul-21 22:34N 49°12' W 122°44'6 6.1
2014-Jul-21 21:34N 49°13' W 122°53'6 5.6
2014-Jul-21 20:34N 49°12' W 123°01'2 6.5
2014-Jul-21 20:18N 49°12' W 123°04'4 5.9
2014-Jul-21 19:34N 49°13' W 123°10'2 1.9
2014-Jul-21 18:33N 49°14' W 123°13'4 3.7
2014-Jul-21 17:33N 49°15' W 123°18'1 0.9
2014-Jul-21 16:34N 49°16' W 123°17'5 5.3
2014-Jul-21 15:33N 49°19' W 123°10'2 2.3
2014-Jul-21 14:33N 49°18' W 123°07'2 1.5
2014-Jul-21 13:34N 49°17' W 123°05'1 0.5
2014-Jul-21 12:33N 49°17' W 123°04'0 0.1
2014-Jul-21 11:33N 49°17' W 123°04'8 8.3
2014-Jul-21 10:33N 49°17' W 123°17'4 4.4
2014-Jul-21 09:33N 49°15' W 123°23'10 9.7
2014-Jul-21 08:33N 49°14' W 123°38'10 9.8
2014-Jul-21 07:33N 49°12' W 123°53'0 0.4
2014-Jul-21 06:33N 49°12' W 123°52'8 8.0
2014-Jul-21 05:33N 49°10' W 123°40'8 8.0
2014-Jul-21 04:33N 49°08' W 123°29'8 8.0
2014-Jul-21 03:33N 49°07' W 123°16'9 8.6
2014-Jul-21 02:33N 49°08' W 123°03'6 6.3
2014-Jul-21 01:33N 49°11' W 122°55'6 6.5
2014-Jul-21 00:33N 49°14' W 122°46'0 0.0
2014-Jul-20 23:32N 49°14' W 122°46'0 0.0
2014-Jul-20 22:33N 49°14' W 122°46'0 0.0
2014-Jul-20 21:33N 49°14' W 122°46'0 0.0
2014-Jul-20 20:33N 49°14' W 122°46'0 0.0
2014-Jul-20 19:33N 49°14' W 122°46'0 0.0
2014-Jul-20 18:33N 49°14' W 122°46'0 0.0
2014-Jul-20 17:33N 49°14' W 122°46'0 0.0
2014-Jul-20 16:33N 49°14' W 122°46'0 0.0
2014-Jul-20 15:33N 49°14' W 122°46'0 0.0
2014-Jul-20 14:33N 49°14' W 122°46'0 0.0
2014-Jul-20 13:33N 49°14' W 122°46'0 0.0
2014-Jul-20 12:33N 49°14' W 122°46'0 0.0
2014-Jul-20 11:33N 49°14' W 122°46'0 0.0
2014-Jul-20 10:33N 49°14' W 122°46'5 5.2
2014-Jul-20 09:33N 49°13' W 122°54'2 2.1
2014-Jul-20 08:33N 49°12' W 122°57'2 1.5
2014-Jul-20 07:33N 49°12' W 122°54'3 3.4
2014-Jul-20 06:33N 49°11' W 122°59'6 6.2
2014-Jul-20 05:33N 49°12' W 123°09'4 4.0
2014-Jul-20 04:33N 49°14' W 123°14'5 4.5
2014-Jul-20 03:33N 49°12' W 123°08'4 3.7
2014-Jul-20 02:33N 49°12' W 123°02'4 4.3
2014-Jul-20 01:33N 49°12' W 123°09'5 4.5
2014-Jul-20 00:33N 49°15' W 123°15'4 4.4
2014-Jul-19 23:33N 49°16' W 123°22'6 5.9
2014-Jul-19 22:33N 49°15' W 123°30'6 5.9
2014-Jul-19 21:33N 49°14' W 123°39'6 5.9
2014-Jul-19 20:33N 49°13' W 123°48'5 5.0
2014-Jul-19 19:33N 49°09' W 123°53'0 0.0
2014-Jul-19 18:34N 49°09' W 123°53'0 0.1
2014-Jul-19 17:33N 49°09' W 123°53'7 7.0
2014-Jul-19 16:34N 49°12' W 123°43'1010.0
2014-Jul-19 15:34N 49°09' W 123°29'10 9.7
2014-Jul-19 14:33N 49°08' W 123°14'1010.4
2014-Jul-19 13:34N 49°09' W 122°59'9 9.3
2014-Jul-19 12:32N 49°14' W 122°46'0 0.0
2014-Jul-19 11:33N 49°14' W 122°46'0 0.0
2014-Jul-19 10:33N 49°14' W 122°46'3 3.1
2014-Jul-19 09:33N 49°13' W 122°50'4 4.0
2014-Jul-19 08:33N 49°12' W 122°56'3 2.6
2014-Jul-19 07:33N 49°10' W 122°58'1 1.2
2014-Jul-19 06:33N 49°10' W 122°56'4 4.3
2014-Jul-19 05:33N 49°13' W 122°52'6 6.3
2014-Jul-19 04:33N 49°12' W 122°42'3 3.5
2014-Jul-19 03:33N 49°13' W 122°37'1 1.1
2014-Jul-19 02:33N 49°12' W 122°39'6 5.6
2014-Jul-19 01:33N 49°13' W 122°47'5 4.9
2014-Jul-19 00:33N 49°12' W 122°54'3 2.9
2014-Jul-18 23:33N 49°10' W 122°57'1 0.7
2014-Jul-18 22:33N 49°10' W 122°58'3 2.8
2014-Jul-18 21:33N 49°12' W 122°55'5 5.4
2014-Jul-18 20:33N 49°13' W 122°47'1 0.6
2014-Jul-18 19:32N 49°14' W 122°46'5 5.3
2014-Jul-18 18:33N 49°12' W 122°54'3 2.8
2014-Jul-18 17:34N 49°11' W 122°58'1 1.3
2014-Jul-18 16:33N 49°12' W 122°56'3 2.5
2014-Jul-18 15:34N 49°09' W 122°58'7 6.7
2014-Jul-18 14:34N 49°13' W 122°49'5 5.2
2014-Jul-18 13:34N 49°11' W 122°42'4 4.0
2014-Jul-18 12:33N 49°14' W 122°46'3 2.8
2014-Jul-18 11:33N 49°13' W 122°50'6 6.2
2014-Jul-18 10:33N 49°11' W 122°59'4 3.9
2014-Jul-18 09:33N 49°12' W 123°04'3 2.6
2014-Jul-18 08:33N 49°12' W 123°08'5 5.3
2014-Jul-18 07:33N 49°15' W 123°15'7 7.2
2014-Jul-18 06:33N 49°12' W 123°05'3 2.7
2014-Jul-18 05:33N 49°12' W 123°01'4 4.3
2014-Jul-18 04:33N 49°12' W 122°54'3 3.2
2014-Jul-18 03:33N 49°09' W 122°57'1 0.6
2014-Jul-18 02:33N 49°10' W 122°58'3 3.0
2014-Jul-18 01:33N 49°12' W 122°55'1 1.1
2014-Jul-18 00:33N 49°11' W 122°55'1 1.1
2014-Jul-17 23:33N 49°12' W 122°55'2 2.5
2014-Jul-17 22:33N 49°10' W 122°57'2 1.7
2014-Jul-17 21:33N 49°11' W 122°55'5 4.9
2014-Jul-17 20:33N 49°12' W 123°03'1 1.5
2014-Jul-17 19:33N 49°12' W 123°05'0 0.4
2014-Jul-17 18:33N 49°12' W 123°05'0 0.0
2014-Jul-17 17:33N 49°12' W 123°05'0 0.0
2014-Jul-17 16:33N 49°12' W 123°05'0 0.0
2014-Jul-17 15:33N 49°12' W 123°05'0 0.0
2014-Jul-17 14:33N 49°12' W 123°05'0 0.0
2014-Jul-17 13:33N 49°12' W 123°05'0 0.0
2014-Jul-17 12:33N 49°12' W 123°05'0 0.0
2014-Jul-17 11:34N 49°12' W 123°05'0 0.0
2014-Jul-17 10:33N 49°12' W 123°05'0 0.0
2014-Jul-17 09:33N 49°12' W 123°05'0 0.0
2014-Jul-17 08:34N 49°12' W 123°05'0 0.0
2014-Jul-17 07:33N 49°12' W 123°05'0 0.0
2014-Jul-17 06:33N 49°12' W 123°05'0 0.0
2014-Jul-17 05:34N 49°12' W 123°05'0 0.0
2014-Jul-17 04:33N 49°12' W 123°05'0 0.0
2014-Jul-17 03:33N 49°12' W 123°05'0 0.0
2014-Jul-17 02:33N 49°12' W 123°05'0 0.0
2014-Jul-17 01:33N 49°12' W 123°05'0 0.0
2014-Jul-17 00:33N 49°12' W 123°05'0 0.0
2014-Jul-16 23:34N 49°12' W 123°05'0 0.0
2014-Jul-16 22:34N 49°12' W 123°05'0 0.0
2014-Jul-16 21:34N 49°12' W 123°05'0 0.0
2014-Jul-16 20:33N 49°12' W 123°05'0 0.0
2014-Jul-16 19:33N 49°12' W 123°05'0 0.0
2014-Jul-16 18:33N 49°12' W 123°05'0 0.0
2014-Jul-16 17:33N 49°12' W 123°05'0 0.0
2014-Jul-16 16:33N 49°12' W 123°05'0 0.0
2014-Jul-16 15:34N 49°12' W 123°05'0 0.0
2014-Jul-16 14:33N 49°12' W 123°05'0 0.0
2014-Jul-16 13:33N 49°12' W 123°05'0 0.0
2014-Jul-16 12:33N 49°12' W 123°05'0 0.0
2014-Jul-16 11:33N 49°12' W 123°05'0 0.0
2014-Jul-16 10:33N 49°12' W 123°05'0 0.0
2014-Jul-16 09:33N 49°12' W 123°05'0 0.0
2014-Jul-16 08:34N 49°12' W 123°05'0 0.0
2014-Jul-16 07:33N 49°12' W 123°05'0 0.0
2014-Jul-16 06:33N 49°12' W 123°05'0 0.0
2014-Jul-16 05:33N 49°12' W 123°05'0 0.0
2014-Jul-16 04:34N 49°12' W 123°05'0 0.0
2014-Jul-16 03:33N 49°12' W 123°05'0 0.0
2014-Jul-16 02:33N 49°12' W 123°05'0 0.0
2014-Jul-16 01:33N 49°12' W 123°05'0 0.0
2014-Jul-16 00:33N 49°12' W 123°05'0 0.0
2014-Jul-15 23:33N 49°12' W 123°05'0 0.0
2014-Jul-15 22:33N 49°12' W 123°05'0 0.0
2014-Jul-15 21:34N 49°12' W 123°05'0 0.0
2014-Jul-15 20:33N 49°12' W 123°05'0 0.0
2014-Jul-15 19:34N 49°12' W 123°05'0 0.0
2014-Jul-15 18:33N 49°12' W 123°05'  

Dump ship's entire track history